sensor_id;sensor_type;location;lat;lon;timestamp;P1;durP1;ratioP1;P2;durP2;ratioP2
45940;SDS011;31858;46.008;8.978;2024-03-29T00:05:13;1.60;;;1.35;;
45940;SDS011;31858;46.008;8.978;2024-03-29T00:15:15;1.90;;;1.67;;
45940;SDS011;31858;46.008;8.978;2024-03-29T00:25:16;1.67;;;1.55;;
45940;SDS011;31858;46.008;8.978;2024-03-29T00:35:18;4.47;;;2.00;;
45940;SDS011;31858;46.008;8.978;2024-03-29T00:45:19;5.50;;;2.00;;
45940;SDS011;31858;46.008;8.978;2024-03-29T00:55:21;1.60;;;1.50;;
45940;SDS011;31858;46.008;8.978;2024-03-29T01:05:22;2.22;;;1.60;;
45940;SDS011;31858;46.008;8.978;2024-03-29T01:15:24;1.53;;;1.43;;
45940;SDS011;31858;46.008;8.978;2024-03-29T01:25:24;2.63;;;2.03;;
45940;SDS011;31858;46.008;8.978;2024-03-29T01:35:26;3.28;;;2.50;;
45940;SDS011;31858;46.008;8.978;2024-03-29T01:45:27;1.95;;;1.80;;
45940;SDS011;31858;46.008;8.978;2024-03-29T01:55:31;2.33;;;2.10;;
45940;SDS011;31858;46.008;8.978;2024-03-29T02:05:33;2.05;;;1.88;;
45940;SDS011;31858;46.008;8.978;2024-03-29T02:15:36;3.50;;;1.92;;
45940;SDS011;31858;46.008;8.978;2024-03-29T02:25:39;1.45;;;1.35;;
45940;SDS011;31858;46.008;8.978;2024-03-29T02:35:41;2.00;;;1.65;;
45940;SDS011;31858;46.008;8.978;2024-03-29T02:45:44;2.75;;;1.20;;
45940;SDS011;31858;46.008;8.978;2024-03-29T02:55:45;4.07;;;1.13;;
45940;SDS011;31858;46.008;8.978;2024-03-29T03:05:48;3.97;;;1.30;;
45940;SDS011;31858;46.008;8.978;2024-03-29T03:15:51;2.53;;;1.05;;
45940;SDS011;31858;46.008;8.978;2024-03-29T03:25:56;1.30;;;1.20;;
45940;SDS011;31858;46.008;8.978;2024-03-29T03:35:58;1.45;;;1.35;;
45940;SDS011;31858;46.008;8.978;2024-03-29T03:46:01;1.45;;;0.90;;
45940;SDS011;31858;46.008;8.978;2024-03-29T03:56:03;1.92;;;1.27;;
45940;SDS011;31858;46.008;8.978;2024-03-29T04:06:07;1.92;;;1.20;;
45940;SDS011;31858;46.008;8.978;2024-03-29T04:16:08;1.45;;;1.23;;
45940;SDS011;31858;46.008;8.978;2024-03-29T04:26:11;2.03;;;1.45;;
45940;SDS011;31858;46.008;8.978;2024-03-29T04:36:13;2.05;;;1.10;;
45940;SDS011;31858;46.008;8.978;2024-03-29T04:46:15;1.98;;;1.40;;
45940;SDS011;31858;46.008;8.978;2024-03-29T04:56:17;1.67;;;1.35;;
45940;SDS011;31858;46.008;8.978;2024-03-29T05:06:20;3.10;;;1.75;;
45940;SDS011;31858;46.008;8.978;2024-03-29T05:16:22;1.25;;;1.20;;
45940;SDS011;31858;46.008;8.978;2024-03-29T05:26:24;2.50;;;1.52;;
45940;SDS011;31858;46.008;8.978;2024-03-29T05:36:26;1.75;;;1.50;;
45940;SDS011;31858;46.008;8.978;2024-03-29T05:46:29;3.30;;;1.90;;
45940;SDS011;31858;46.008;8.978;2024-03-29T05:56:30;4.68;;;1.90;;
45940;SDS011;31858;46.008;8.978;2024-03-29T06:06:33;4.40;;;2.20;;
45940;SDS011;31858;46.008;8.978;2024-03-29T06:16:35;1.63;;;1.55;;
45940;SDS011;31858;46.008;8.978;2024-03-29T06:26:55;3.00;;;2.70;;
45940;SDS011;31858;46.008;8.978;2024-03-29T06:36:57;3.67;;;2.35;;
45940;SDS011;31858;46.008;8.978;2024-03-29T06:47:00;2.40;;;2.20;;
45940;SDS011;31858;46.008;8.978;2024-03-29T06:57:01;1.88;;;1.73;;
45940;SDS011;31858;46.008;8.978;2024-03-29T07:07:05;2.08;;;1.95;;
45940;SDS011;31858;46.008;8.978;2024-03-29T07:17:06;2.72;;;1.90;;
45940;SDS011;31858;46.008;8.978;2024-03-29T07:27:09;2.88;;;1.75;;
45940;SDS011;31858;46.008;8.978;2024-03-29T07:37:12;215.23;;;7.38;;
45940;SDS011;31858;46.008;8.978;2024-03-29T07:47:17;2.15;;;2.05;;
45940;SDS011;31858;46.008;8.978;2024-03-29T07:57:19;425.42;;;12.73;;
45940;SDS011;31858;46.008;8.978;2024-03-29T08:07:22;316.08;;;9.52;;
45940;SDS011;31858;46.008;8.978;2024-03-29T08:17:23;13.23;;;1.60;;
45940;SDS011;31858;46.008;8.978;2024-03-29T08:27:26;14.95;;;2.00;;
45940;SDS011;31858;46.008;8.978;2024-03-29T08:37:28;1.50;;;1.40;;
45940;SDS011;31858;46.008;8.978;2024-03-29T08:47:32;11.80;;;2.05;;
45940;SDS011;31858;46.008;8.978;2024-03-29T08:57:33;2.38;;;2.28;;
45940;SDS011;31858;46.008;8.978;2024-03-29T09:07:37;0.28;;;0.28;;
45940;SDS011;31858;46.008;8.978;2024-03-29T09:17:41;0.60;;;0.43;;
45940;SDS011;31858;46.008;8.978;2024-03-29T09:27:44;8.38;;;7.32;;
45940;SDS011;31858;46.008;8.978;2024-03-29T09:37:48;6.25;;;5.57;;
45940;SDS011;31858;46.008;8.978;2024-03-29T09:47:51;243.18;;;6.20;;
45940;SDS011;31858;46.008;8.978;2024-03-29T09:57:53;225.10;;;6.38;;
45940;SDS011;31858;46.008;8.978;2024-03-29T10:07:57;23.70;;;2.40;;
45940;SDS011;31858;46.008;8.978;2024-03-29T10:18:05;68.32;;;2.85;;
45940;SDS011;31858;46.008;8.978;2024-03-29T10:28:12;84.90;;;3.15;;
45940;SDS011;31858;46.008;8.978;2024-03-29T10:38:13;94.55;;;4.38;;
45940;SDS011;31858;46.008;8.978;2024-03-29T10:48:16;18.05;;;2.72;;
45940;SDS011;31858;46.008;8.978;2024-03-29T10:58:18;611.78;;;18.83;;
45940;SDS011;31858;46.008;8.978;2024-03-29T11:08:26;226.63;;;7.30;;
45940;SDS011;31858;46.008;8.978;2024-03-29T11:18:31;3.08;;;1.80;;
45940;SDS011;31858;46.008;8.978;2024-03-29T11:28:35;74.30;;;3.05;;
45940;SDS011;31858;46.008;8.978;2024-03-29T11:38:38;90.55;;;3.33;;
45940;SDS011;31858;46.008;8.978;2024-03-29T11:48:42;1.83;;;1.73;;
45940;SDS011;31858;46.008;8.978;2024-03-29T11:58:44;2.00;;;1.90;;
45940;SDS011;31858;46.008;8.978;2024-03-29T12:08:48;87.45;;;3.95;;
45940;SDS011;31858;46.008;8.978;2024-03-29T12:18:53;75.97;;;3.97;;
45940;SDS011;31858;46.008;8.978;2024-03-29T12:28:56;6.90;;;2.75;;
45940;SDS011;31858;46.008;8.978;2024-03-29T12:38:58;248.65;;;7.57;;
45940;SDS011;31858;46.008;8.978;2024-03-29T12:49:04;99.80;;;4.78;;
45940;SDS011;31858;46.008;8.978;2024-03-29T12:59:06;152.25;;;7.72;;
45940;SDS011;31858;46.008;8.978;2024-03-29T13:09:09;11.98;;;2.60;;
45940;SDS011;31858;46.008;8.978;2024-03-29T13:19:12;4.38;;;3.97;;
45940;SDS011;31858;46.008;8.978;2024-03-29T13:29:15;107.35;;;7.80;;
45940;SDS011;31858;46.008;8.978;2024-03-29T13:39:16;49.08;;;7.38;;
45940;SDS011;31858;46.008;8.978;2024-03-29T13:49:19;274.38;;;14.98;;
45940;SDS011;31858;46.008;8.978;2024-03-29T13:59:21;84.00;;;10.55;;
45940;SDS011;31858;46.008;8.978;2024-03-29T14:09:24;274.27;;;11.73;;
45940;SDS011;31858;46.008;8.978;2024-03-29T14:19:26;137.02;;;11.45;;
45940;SDS011;31858;46.008;8.978;2024-03-29T14:29:29;147.07;;;9.73;;
45940;SDS011;31858;46.008;8.978;2024-03-29T14:39:31;8.57;;;7.53;;
45940;SDS011;31858;46.008;8.978;2024-03-29T14:49:34;104.40;;;11.35;;
45940;SDS011;31858;46.008;8.978;2024-03-29T14:59:36;88.28;;;8.93;;
45940;SDS011;31858;46.008;8.978;2024-03-29T15:09:40;7.28;;;6.57;;
45940;SDS011;31858;46.008;8.978;2024-03-29T15:19:41;681.17;;;23.55;;
45940;SDS011;31858;46.008;8.978;2024-03-29T15:29:54;112.20;;;8.52;;
45940;SDS011;31858;46.008;8.978;2024-03-29T15:39:56;7.60;;;6.90;;
45940;SDS011;31858;46.008;8.978;2024-03-29T15:49:59;5.68;;;4.90;;
45940;SDS011;31858;46.008;8.978;2024-03-29T16:00:00;3.60;;;3.30;;
45940;SDS011;31858;46.008;8.978;2024-03-29T16:10:04;9.98;;;5.82;;
45940;SDS011;31858;46.008;8.978;2024-03-29T16:20:06;521.28;;;22.58;;
45940;SDS011;31858;46.008;8.978;2024-03-29T16:30:10;9.50;;;8.50;;
45940;SDS011;31858;46.008;8.978;2024-03-29T16:40:13;6.38;;;5.70;;
45940;SDS011;31858;46.008;8.978;2024-03-29T16:50:16;36.88;;;7.97;;
45940;SDS011;31858;46.008;8.978;2024-03-29T17:00:18;17.38;;;8.75;;
45940;SDS011;31858;46.008;8.978;2024-03-29T17:10:22;188.50;;;16.52;;
45940;SDS011;31858;46.008;8.978;2024-03-29T17:20:23;14.82;;;13.23;;
45940;SDS011;31858;46.008;8.978;2024-03-29T17:30:26;31.75;;;15.00;;
45940;SDS011;31858;46.008;8.978;2024-03-29T17:40:28;13.80;;;12.30;;
45940;SDS011;31858;46.008;8.978;2024-03-29T17:50:31;13.95;;;10.45;;
45940;SDS011;31858;46.008;8.978;2024-03-29T18:00:33;8.55;;;7.40;;
45940;SDS011;31858;46.008;8.978;2024-03-29T18:10:35;15.43;;;8.82;;
45940;SDS011;31858;46.008;8.978;2024-03-29T18:20:37;12.48;;;10.00;;
45940;SDS011;31858;46.008;8.978;2024-03-29T18:30:41;9.63;;;8.20;;
45940;SDS011;31858;46.008;8.978;2024-03-29T18:40:42;9.25;;;8.20;;
45940;SDS011;31858;46.008;8.978;2024-03-29T18:50:53;12.77;;;6.40;;
45940;SDS011;31858;46.008;8.978;2024-03-29T19:00:55;10.25;;;5.38;;
45940;SDS011;31858;46.008;8.978;2024-03-29T19:10:58;9.40;;;7.95;;
45940;SDS011;31858;46.008;8.978;2024-03-29T19:21:00;9.23;;;8.18;;
45940;SDS011;31858;46.008;8.978;2024-03-29T19:31:03;10.55;;;8.95;;
45940;SDS011;31858;46.008;8.978;2024-03-29T19:41:04;11.98;;;9.40;;
45940;SDS011;31858;46.008;8.978;2024-03-29T19:51:07;13.77;;;9.18;;
45940;SDS011;31858;46.008;8.978;2024-03-29T20:01:09;16.13;;;7.70;;
45940;SDS011;31858;46.008;8.978;2024-03-29T20:11:15;17.92;;;12.10;;
45940;SDS011;31858;46.008;8.978;2024-03-29T20:21:17;14.95;;;9.63;;
45940;SDS011;31858;46.008;8.978;2024-03-29T20:31:20;15.50;;;9.30;;
45940;SDS011;31858;46.008;8.978;2024-03-29T20:41:21;23.10;;;12.48;;
45940;SDS011;31858;46.008;8.978;2024-03-29T20:51:24;23.17;;;13.13;;
45940;SDS011;31858;46.008;8.978;2024-03-29T21:01:26;26.75;;;13.82;;
45940;SDS011;31858;46.008;8.978;2024-03-29T21:11:46;24.63;;;9.57;;
45940;SDS011;31858;46.008;8.978;2024-03-29T21:21:48;24.10;;;10.30;;
45940;SDS011;31858;46.008;8.978;2024-03-29T21:31:51;26.35;;;8.52;;
45940;SDS011;31858;46.008;8.978;2024-03-29T21:41:52;19.50;;;8.15;;
45940;SDS011;31858;46.008;8.978;2024-03-29T21:51:56;22.02;;;7.95;;
45940;SDS011;31858;46.008;8.978;2024-03-29T22:01:57;28.80;;;9.95;;
45940;SDS011;31858;46.008;8.978;2024-03-29T22:12:00;50.50;;;26.60;;
45940;SDS011;31858;46.008;8.978;2024-03-29T22:22:02;51.08;;;23.05;;
45940;SDS011;31858;46.008;8.978;2024-03-29T22:32:06;62.80;;;29.50;;
45940;SDS011;31858;46.008;8.978;2024-03-29T22:42:07;59.30;;;25.52;;
45940;SDS011;31858;46.008;8.978;2024-03-29T22:52:10;57.75;;;30.27;;
45940;SDS011;31858;46.008;8.978;2024-03-29T23:02:12;60.65;;;28.92;;
45940;SDS011;31858;46.008;8.978;2024-03-29T23:12:15;61.85;;;30.88;;
45940;SDS011;31858;46.008;8.978;2024-03-29T23:22:16;55.67;;;29.08;;
45940;SDS011;31858;46.008;8.978;2024-03-29T23:32:19;50.47;;;25.67;;
45940;SDS011;31858;46.008;8.978;2024-03-29T23:42:21;54.92;;;29.20;;
45940;SDS011;31858;46.008;8.978;2024-03-29T23:52:24;54.30;;;31.00;;
